KGMU/GMU METAR and TAF weather

Enter ICAO airport designator
Station Type Date Time Source
KGMU METAR 2019/12/14 18:53 UTC NOAA

KGMU 141853Z 28015G25KT 10SM FEW050 14/03 A2963 RMK AO2 PK WND 26026/1814 SLP031 T01440028


Station Type Date Time Source
KGMU Decoded METAR 2019/12/14 18:53 UTC NOAA

GREENVILLE DOWNTOWN AIRPORT , SC, United States (KGMU) 34-51N 82-21W 315M
Dec 14, 2019 - 01:53 PM EST / 2019.12.14 1853 UTC
Wind: from the W (280 degrees) at 17 MPH (15 KT) gusting to 29 MPH (25 KT):0
Visibility: 10 mile(s):0
Sky conditions: mostly clear
Temperature: 57.9 F (14.4 C)
Dew Point: 37.0 F (2.8 C)
Relative Humidity: 45%
Pressure (altimeter): 29.63 in. Hg (1003 hPa)
ob: KGMU 141853Z 28015G25KT 10SM FEW050 14/03 A2963 RMK AO2 PK WND 26026/1814 SLP031 T01440028
cycle: 19

Station Type Date Time Source
KGMU TAF 2019/12/14 18:36 UTC NOAA

TAF KGMU 141734Z 1418/1518 27012G20KT P6SM BKN035
FM142200 26010KT P6SM FEW250
FM150400 24005KT P6SM FEW250
FM151500 26003KT P6SM SCT110

Example: see airport list